Terminal Aerodrome Forecast
Issued by NWS Shreveport, LA

Home | Current Version | Previous Version | Text Only | Print | Product List | Glossary On
Versions: 1 2 3 4 5 6 7 8 9 10 11 12 13 14 15 16 17 18 19 20 21
000
FTUS44 KSHV 242300
TAFTXK
TAF
KTXK 242333Z 2500/2524 28007KT P6SM OVC035
     FM250200 24006KT P6SM SKC
     FM251200 19005KT P6SM SKC
     FM251800 19013KT P6SM SKC=

USA.gov is the U.S. government's official web portal to all federal, state and local government web resources and services.